Time;durP1;ratioP1;P1;durP2;ratioP2;P2;SDS_P1;SDS_P2;PMS_P1;PMS_P2;Temp;Humidity;BMP_temperature;BMP_pressure;BME280_temperature;BME280_humidity;BME280_pressure;Samples;Min_cycle;Max_cycle;Signal;HPM_P1;HPM_P2
2023/06/10 00:02:01;;;;;;;;;;;;;;;19.33;56.85;101750.84;5049057;28;996;-74
2023/06/10 00:04:28;;;;;;;;;;;;;;;19.35;56.73;101754.13;5048808;28;1436;-74
2023/06/10 00:06:55;;;;;;;;;;;;;;;19.33;56.31;101761.78;5048832;28;1078;-74
2023/06/10 00:09:22;;;;;;;;;;;;;;;19.33;56.23;101758.22;5031073;28;1164;-74
2023/06/10 00:11:49;;;;;;;;;;;;;;;19.31;56.66;101757.63;5049283;28;1015;-74
2023/06/10 00:14:15;;;;;;;;;;;;;;;19.29;56.23;101769.66;5031196;28;1486;-74
2023/06/10 00:16:44;;;;;;;;;;;;;;;19.26;56.59;101764.66;5048999;28;1128;-74
2023/06/10 00:19:13;;;;;;;;;;;;;;;19.28;56.18;101765.25;5051282;28;1910;-75
2023/06/10 00:21:40;;;;;;;;;;;;;;;19.25;56.26;101767.66;5035318;28;1086;-74
2023/06/10 00:24:06;;;;;;;;;;;;;;;19.23;56.48;101772.53;5053140;28;1451;-75
2023/06/10 00:26:33;;;;;;;;;;;;;;;19.22;56.14;101770.88;5033894;28;1454;-75
2023/06/10 00:28:59;;;;;;;;;;;;;;;19.24;56.00;101771.47;5035248;28;1023;-74
2023/06/10 00:31:26;;;;;;;;;;;;;;;19.25;56.32;101771.19;5053408;28;1124;-74
2023/06/10 00:33:53;;;;;;;;;;;;;;;19.20;56.13;101764.81;5035928;28;1461;-74
2023/06/10 00:36:19;;;;;;;;;;;;;;;19.24;56.04;101758.63;5036899;28;1164;-74
2023/06/10 00:38:46;;;;;;;;;;;;;;;19.19;55.84;101765.91;5051857;28;1946;-73
2023/06/10 00:41:12;;;;;;;;;;;;;;;19.12;56.40;101779.72;5053000;28;1015;-73
2023/06/10 00:43:39;;;;;;;;;;;;;;;19.30;55.37;101765.00;5034950;28;1545;-74
2023/06/10 00:46:05;;;;;;;;;;;;;;;19.25;55.74;101771.19;5036668;28;1075;-74
2023/06/10 00:48:32;;;;;;;;;;;;;;;19.11;56.41;101779.97;5052766;28;1444;-74
2023/06/10 00:50:59;;;;;;;;;;;;;;;19.09;56.17;101780.22;5052943;28;1204;-74
2023/06/10 00:53:26;;;;;;;;;;;;;;;19.05;55.99;101785.34;5051887;28;1606;-73
2023/06/10 00:55:52;;;;;;;;;;;;;;;18.99;56.08;101783.59;5052480;28;972;-74
2023/06/10 00:58:19;;;;;;;;;;;;;;;18.97;56.17;101788.50;5051990;28;1910;-73
2023/06/10 01:00:46;;;;;;;;;;;;;;;18.95;56.12;101792.53;5052883;28;1243;-73
2023/06/10 01:03:13;;;;;;;;;;;;;;;18.99;55.87;101788.22;5051210;28;1467;-73
2023/06/10 01:05:41;;;;;;;;;;;;;;;19.00;56.03;101792.59;5051633;28;1030;-73
2023/06/10 01:08:07;;;;;;;;;;;;;;;18.98;55.86;101792.88;5053051;28;1003;-73
2023/06/10 01:10:34;;;;;;;;;;;;;;;18.91;56.24;101794.91;5052924;28;1133;-73
2023/06/10 01:13:02;;;;;;;;;;;;;;;18.92;56.07;101790.28;5033066;28;1560;-73
2023/06/10 01:15:28;;;;;;;;;;;;;;;19.06;55.37;101791.66;5052655;28;1023;-73
2023/06/10 01:17:55;;;;;;;;;;;;;;;19.00;55.34;101793.47;5053012;28;1026;-73
2023/06/10 01:20:22;;;;;;;;;;;;;;;19.00;55.70;101798.06;5052646;28;1914;-72
2023/06/10 01:22:49;;;;;;;;;;;;;;;18.91;55.89;101794.09;5051902;28;1507;-73
2023/06/10 01:25:15;;;;;;;;;;;;;;;18.80;55.91;101796.63;5050891;28;1086;-73
2023/06/10 01:27:42;;;;;;;;;;;;;;;18.86;55.72;101797.56;5053038;28;1003;-74
2023/06/10 01:30:08;;;;;;;;;;;;;;;18.78;55.99;101798.78;5034374;28;1160;-72
2023/06/10 01:32:35;;;;;;;;;;;;;;;18.81;55.79;101801.00;5035129;28;1494;-73
2023/06/10 01:35:01;;;;;;;;;;;;;;;18.79;55.86;101796.88;5030786;28;1478;-74
2023/06/10 01:37:28;;;;;;;;;;;;;;;18.75;55.56;101799.25;5047862;28;998;-73
2023/06/10 01:39:54;;;;;;;;;;;;;;;18.80;55.48;101802.09;5036033;28;2630;-73
2023/06/10 01:42:21;;;;;;;;;;;;;;;18.71;55.52;101803.53;5050638;28;1518;-75
2023/06/10 01:44:48;;;;;;;;;;;;;;;18.70;55.80;101811.94;5052257;28;1146;-75
2023/06/10 01:47:14;;;;;;;;;;;;;;;18.66;55.63;101822.53;5035361;28;1046;-73
2023/06/10 01:49:41;;;;;;;;;;;;;;;18.62;55.78;101818.63;5051559;28;1074;-75
2023/06/10 01:52:07;;;;;;;;;;;;;;;18.62;55.85;101821.38;5051266;28;1543;-74
2023/06/10 01:54:34;;;;;;;;;;;;;;;18.61;55.60;101819.69;5051605;28;1116;-74
2023/06/10 01:57:01;;;;;;;;;;;;;;;18.57;55.83;101822.06;5051321;28;1307;-74
2023/06/10 01:59:27;;;;;;;;;;;;;;;18.67;55.42;101823.34;5051696;28;1938;-75
2023/06/10 02:01:54;;;;;;;;;;;;;;;18.65;55.31;101831.78;5050626;28;1479;-74
2023/06/10 02:04:20;;;;;;;;;;;;;;;18.57;55.39;101833.00;5050964;28;1184;-74
2023/06/10 02:06:47;;;;;;;;;;;;;;;18.58;55.37;101833.81;5051019;28;1022;-75
2023/06/10 02:09:13;;;;;;;;;;;;;;;18.56;55.61;101836.81;5051084;28;1511;-73
2023/06/10 02:11:40;;;;;;;;;;;;;;;18.55;55.49;101837.84;5051251;28;1010;-73
2023/06/10 02:14:06;;;;;;;;;;;;;;;18.54;55.37;101838.09;5051519;28;1019;-74
2023/06/10 02:16:33;;;;;;;;;;;;;;;18.50;55.38;101851.41;5034610;28;2043;-73
2023/06/10 02:19:00;;;;;;;;;;;;;;;18.47;55.42;101851.03;5051425;28;1914;-73
2023/06/10 02:21:26;;;;;;;;;;;;;;;18.44;55.57;101852.34;5050465;28;1976;-73
2023/06/10 02:23:53;;;;;;;;;;;;;;;18.43;55.36;101853.44;5034574;28;1157;-74
2023/06/10 02:26:20;;;;;;;;;;;;;;;18.41;55.45;101854.72;5051627;28;1038;-73
2023/06/10 02:28:47;;;;;;;;;;;;;;;18.38;55.45;101862.34;5049544;28;1078;-74
2023/06/10 02:31:14;;;;;;;;;;;;;;;18.36;55.29;101859.03;5050830;28;1530;-74
2023/06/10 02:33:41;;;;;;;;;;;;;;;18.35;55.20;101860.09;5031974;28;1383;-75
2023/06/10 02:36:08;;;;;;;;;;;;;;;18.35;55.28;101867.44;5050709;28;1011;-72
2023/06/10 02:38:35;;;;;;;;;;;;;;;18.32;55.22;101865.19;5051817;28;1914;-73
2023/06/10 02:41:01;;;;;;;;;;;;;;;18.33;55.13;101875.03;5050138;28;1591;-75
2023/06/10 02:43:28;;;;;;;;;;;;;;;18.30;55.22;101870.06;5049908;28;1006;-73
2023/06/10 02:45:54;;;;;;;;;;;;;;;18.29;55.16;101866.47;5050846;28;1289;-73
2023/06/10 02:48:21;;;;;;;;;;;;;;;18.32;55.05;101870.63;5033333;28;1452;-74
2023/06/10 02:50:47;;;;;;;;;;;;;;;18.26;55.07;101871.59;5051467;28;1022;-75
2023/06/10 02:53:14;;;;;;;;;;;;;;;18.26;55.07;101882.50;5033227;28;1173;-75
2023/06/10 02:55:41;;;;;;;;;;;;;;;18.23;55.00;101878.34;5050679;28;1030;-75
2023/06/10 02:58:08;;;;;;;;;;;;;;;18.25;55.05;101884.41;5049417;28;1523;-74
2023/06/10 03:00:35;;;;;;;;;;;;;;;18.24;54.91;101890.13;5050544;28;2016;-74
2023/06/10 03:03:03;;;;;;;;;;;;;;;18.22;54.88;101889.50;5050778;28;975;-72
2023/06/10 03:05:29;;;;;;;;;;;;;;;18.22;55.03;101897.69;5049347;28;1060;-75
2023/06/10 03:07:56;;;;;;;;;;;;;;;18.23;54.94;101891.97;5032670;28;1533;-74
2023/06/10 03:10:22;;;;;;;;;;;;;;;18.22;54.71;101897.69;5050413;28;1019;-73
2023/06/10 03:12:49;;;;;;;;;;;;;;;18.19;55.00;101890.00;5050307;28;1066;-72
2023/06/10 03:15:15;;;;;;;;;;;;;;;18.16;54.73;101894.00;5050255;28;1066;-74
2023/06/10 03:17:42;;;;;;;;;;;;;;;18.23;54.54;101891.16;5049061;28;1372;-75
2023/06/10 03:20:10;;;;;;;;;;;;;;;18.17;54.72;101901.13;5050496;28;1918;-75
2023/06/10 03:22:37;;;;;;;;;;;;;;;18.15;54.63;101904.09;5049180;28;999;-74
2023/06/10 03:25:04;;;;;;;;;;;;;;;18.22;54.49;101900.41;5050177;28;1027;-74
2023/06/10 03:27:31;;;;;;;;;;;;;;;18.19;54.30;101904.44;5049293;28;1556;-75
2023/06/10 03:29:57;;;;;;;;;;;;;;;18.16;54.54;101908.47;5048755;28;1011;-74
2023/06/10 03:32:24;;;;;;;;;;;;;;;18.17;54.20;101904.66;5033034;28;1177;-74
2023/06/10 03:34:51;;;;;;;;;;;;;;;18.13;54.42;101911.69;5049896;28;1105;-74
2023/06/10 03:37:17;;;;;;;;;;;;;;;18.13;54.54;101916.31;5049149;28;1003;-75
2023/06/10 03:39:44;;;;;;;;;;;;;;;18.09;54.57;101913.22;5033227;28;1977;-75
2023/06/10 03:42:11;;;;;;;;;;;;;;;18.08;54.64;101914.28;5049767;28;1003;-74
2023/06/10 03:44:38;;;;;;;;;;;;;;;18.07;54.22;101926.25;5049848;28;1042;-75
2023/06/10 03:47:04;;;;;;;;;;;;;;;18.05;54.51;101916.66;5030692;28;1462;-74
2023/06/10 03:49:31;;;;;;;;;;;;;;;18.07;54.12;101920.81;5050057;28;1030;-74
2023/06/10 03:51:57;;;;;;;;;;;;;;;18.06;54.30;101921.88;5050008;28;1050;-75
2023/06/10 03:54:24;;;;;;;;;;;;;;;18.10;54.08;101924.97;5030247;28;1540;-75
2023/06/10 03:56:51;;;;;;;;;;;;;;;18.13;54.09;101921.75;5049444;28;1337;-75
2023/06/10 03:59:17;;;;;;;;;;;;;;;18.02;54.18;101922.56;5049809;28;2003;-74
2023/06/10 04:01:44;;;;;;;;;;;;;;;17.98;54.34;101924.13;5049321;28;991;-75
2023/06/10 04:04:11;;;;;;;;;;;;;;;17.95;54.17;101921.88;5033537;28;1567;-74
2023/06/10 04:06:38;;;;;;;;;;;;;;;17.94;54.44;101931.91;5047360;28;1507;-74
2023/06/10 04:09:04;;;;;;;;;;;;;;;18.01;54.24;101929.09;5049586;28;1095;-75
2023/06/10 04:11:31;;;;;;;;;;;;;;;17.93;54.27;101928.38;5049717;28;1018;-73
2023/06/10 04:14:18;;;;;;;;;;;;;;;17.97;54.29;101928.75;5046097;28;1015;-75
2023/06/10 04:17:09;;;;;;;;;;;;;;;17.96;54.16;101931.69;5046722;28;1773;-75
2023/06/10 04:19:56;;;;;;;;;;;;;;;17.88;54.07;101922.81;5044954;28;1995;-75
2023/06/10 04:22:48;;;;;;;;;;;;;;;17.87;54.17;101933.94;5044531;28;1011;-74
2023/06/10 04:25:14;;;;;;;;;;;;;;;17.92;54.18;101940.34;5049613;28;1062;-74
2023/06/10 04:27:41;;;;;;;;;;;;;;;17.90;54.10;101939.75;5048915;28;1067;-74
2023/06/10 04:30:07;;;;;;;;;;;;;;;17.92;53.93;101937.63;5048210;28;1583;-74
2023/06/10 04:32:34;;;;;;;;;;;;;;;17.85;54.17;101936.91;5032149;28;1114;-74
2023/06/10 04:35:00;;;;;;;;;;;;;;;17.86;54.00;101944.00;5033061;28;1236;-74
2023/06/10 04:37:29;;;;;;;;;;;;;;;17.90;53.87;101947.09;5048622;28;1089;-74
2023/06/10 04:39:55;;;;;;;;;;;;;;;17.87;53.84;101942.13;5049048;28;1977;-75
2023/06/10 04:42:22;;;;;;;;;;;;;;;17.87;54.02;101950.28;5050050;28;1010;-74
2023/06/10 04:44:49;;;;;;;;;;;;;;;17.85;53.97;101949.69;5049432;28;1026;-74
2023/06/10 04:47:17;;;;;;;;;;;;;;;17.83;53.83;101947.22;5049406;28;1003;-75
2023/06/10 04:49:43;;;;;;;;;;;;;;;17.80;54.07;101938.69;5048902;28;1463;-75
2023/06/10 04:52:10;;;;;;;;;;;;;;;17.83;54.06;101947.22;5049668;28;1121;-74
2023/06/10 04:54:36;;;;;;;;;;;;;;;17.89;53.62;101948.16;5049187;28;1038;-74
2023/06/10 04:57:03;;;;;;;;;;;;;;;17.82;53.91;101941.97;5047476;28;1614;-74
2023/06/10 04:59:29;;;;;;;;;;;;;;;17.82;53.88;101948.25;5032052;28;1911;-75
2023/06/10 05:01:56;;;;;;;;;;;;;;;17.93;53.46;101944.72;5048744;28;1011;-75
2023/06/10 05:04:23;;;;;;;;;;;;;;;17.84;53.55;101950.75;5048376;28;1006;-75
2023/06/10 05:06:49;;;;;;;;;;;;;;;17.86;53.68;101945.91;5052767;28;1464;-74
2023/06/10 05:09:16;;;;;;;;;;;;;;;17.83;53.51;101954.56;5051788;28;1217;-74
2023/06/10 05:11:43;;;;;;;;;;;;;;;17.81;53.76;101949.31;5052265;28;1026;-74
2023/06/10 05:14:09;;;;;;;;;;;;;;;17.83;53.51;101949.13;5053136;28;1227;-74
2023/06/10 05:16:36;;;;;;;;;;;;;;;17.84;53.45;101950.75;5053110;28;1593;-74
2023/06/10 05:19:03;;;;;;;;;;;;;;;17.84;53.52;101957.03;5052238;28;1195;-74
2023/06/10 05:21:29;;;;;;;;;;;;;;;17.90;53.39;101952.53;5052827;28;1062;-73
2023/06/10 05:23:56;;;;;;;;;;;;;;;17.83;53.51;101958.13;5051521;28;1028;-74
2023/06/10 05:26:22;;;;;;;;;;;;;;;17.82;53.47;101947.44;5050909;28;1596;-74
2023/06/10 05:28:49;;;;;;;;;;;;;;;17.81;53.46;101952.06;5051410;28;1030;-74
2023/06/10 05:31:15;;;;;;;;;;;;;;;17.82;53.50;101944.69;5052163;28;1144;-73
2023/06/10 05:33:42;;;;;;;;;;;;;;;17.80;53.50;101946.84;5035949;28;1082;-75
2023/06/10 05:36:08;;;;;;;;;;;;;;;17.71;53.66;101954.50;5051064;28;1574;-73
2023/06/10 05:38:35;;;;;;;;;;;;;;;17.79;53.35;101953.34;5051791;28;1471;-74
2023/06/10 05:41:01;;;;;;;;;;;;;;;17.79;53.50;101951.44;5051332;28;2050;-74
2023/06/10 05:43:28;;;;;;;;;;;;;;;17.76;53.39;101954.59;5053400;28;1125;-74
2023/06/10 05:45:54;;;;;;;;;;;;;;;17.77;53.16;101941.84;5035115;28;1561;-74
2023/06/10 05:48:21;;;;;;;;;;;;;;;17.78;53.32;101941.63;5051542;28;1050;-74
2023/06/10 05:50:48;;;;;;;;;;;;;;;17.80;53.30;101936.78;5051305;28;1021;-74
2023/06/10 05:53:15;;;;;;;;;;;;;;;17.91;52.90;101948.75;5052627;28;1039;-74
2023/06/10 05:55:42;;;;;;;;;;;;;;;17.88;52.85;101947.34;5051114;28;1482;-74
2023/06/10 05:58:08;;;;;;;;;;;;;;;17.71;53.43;101947.16;5051270;28;1287;-75
2023/06/10 06:00:35;;;;;;;;;;;;;;;17.79;53.15;101948.72;5051393;28;1983;-74
2023/06/10 06:03:01;;;;;;;;;;;;;;;17.79;53.13;101945.19;5051488;28;1536;-74
2023/06/10 06:05:28;;;;;;;;;;;;;;;17.71;53.40;101946.34;5050440;28;1480;-75
2023/06/10 06:07:54;;;;;;;;;;;;;;;17.75;53.26;101936.63;5051623;28;982;-75
2023/06/10 06:10:21;;;;;;;;;;;;;;;17.73;53.09;101951.53;5052293;28;1039;-74
2023/06/10 06:12:50;;;;;;;;;;;;;;;17.78;53.19;101957.16;5049595;28;1480;-73
2023/06/10 06:15:16;;;;;;;;;;;;;;;17.79;52.98;101951.44;5050761;28;1026;-74
2023/06/10 06:17:43;;;;;;;;;;;;;;;17.85;52.68;101950.53;5051158;28;1014;-74
2023/06/10 06:20:09;;;;;;;;;;;;;;;17.79;52.96;101951.44;5050672;28;1910;-74
2023/06/10 06:22:36;;;;;;;;;;;;;;;17.79;52.90;101953.34;5050908;28;994;-74
2023/06/10 06:25:02;;;;;;;;;;;;;;;17.73;52.86;101952.34;5050845;28;1500;-74
2023/06/10 06:27:29;;;;;;;;;;;;;;;17.71;53.06;101957.22;5050117;28;1070;-75
2023/06/10 06:29:56;;;;;;;;;;;;;;;17.70;52.95;101953.66;5052042;28;1018;-75
2023/06/10 06:32:24;;;;;;;;;;;;;;;17.74;53.04;101956.75;5049818;28;2882;-74
2023/06/10 06:34:54;;;;;;;;;;;;;;;17.67;53.21;101956.84;5050692;28;1523;-74
2023/06/10 06:37:20;;;;;;;;;;;;;;;17.65;53.02;101964.44;5050534;28;1066;-74
2023/06/10 06:39:47;;;;;;;;;;;;;;;17.69;53.10;101959.34;5051092;28;1918;-74
2023/06/10 06:42:13;;;;;;;;;;;;;;;17.62;53.23;101958.63;5051045;28;1097;-74
2023/06/10 06:44:40;;;;;;;;;;;;;;;17.69;53.07;101965.63;5049710;28;1512;-76
2023/06/10 06:47:06;;;;;;;;;;;;;;;17.66;53.23;101951.63;5050884;28;1018;-74
2023/06/10 06:49:33;;;;;;;;;;;;;;;17.66;53.09;101952.47;5050753;28;1030;-73
2023/06/10 06:51:59;;;;;;;;;;;;;;;17.62;53.22;101956.72;5050840;28;1142;-73
2023/06/10 06:54:26;;;;;;;;;;;;;;;17.84;52.37;101954.31;5049427;28;1471;-73
2023/06/10 06:56:52;;;;;;;;;;;;;;;17.87;52.50;101967.47;5051016;28;1296;-74
2023/06/10 06:59:19;;;;;;;;;;;;;;;17.76;52.69;101957.34;5050152;28;935;-74
2023/06/10 07:01:46;;;;;;;;;;;;;;;17.71;52.87;101957.22;5049530;28;1969;-76
2023/06/10 07:04:12;;;;;;;;;;;;;;;17.75;52.70;101960.31;5050105;28;1042;-75
2023/06/10 07:06:39;;;;;;;;;;;;;;;17.76;52.77;101964.69;5048651;28;1483;-75
2023/06/10 07:09:06;;;;;;;;;;;;;;;17.73;52.76;101968.69;5050502;28;1018;-73
2023/06/10 07:11:33;;;;;;;;;;;;;;;17.72;52.71;101964.34;5050535;28;1073;-75
2023/06/10 07:13:59;;;;;;;;;;;;;;;17.67;52.87;101966.91;5048619;28;1587;-74
2023/06/10 07:16:26;;;;;;;;;;;;;;;17.74;52.49;101962.22;5050997;28;998;-75
2023/06/10 07:18:52;;;;;;;;;;;;;;;17.97;52.01;101958.72;5051020;28;1027;-75
2023/06/10 07:21:19;;;;;;;;;;;;;;;17.90;52.08;101956.09;5050345;28;1914;-75
2023/06/10 07:23:45;;;;;;;;;;;;;;;17.78;52.58;101963.41;5027949;28;1430;-75
2023/06/10 07:26:13;;;;;;;;;;;;;;;17.82;52.23;101967.31;5050110;28;1054;-73
2023/06/10 07:28:39;;;;;;;;;;;;;;;17.85;52.42;101961.44;5049000;28;995;-75
2023/06/10 07:31:06;;;;;;;;;;;;;;;17.65;52.71;101950.81;5049912;28;1011;-74
2023/06/10 07:33:32;;;;;;;;;;;;;;;17.86;52.17;101968.53;5030409;28;1428;-75
2023/06/10 07:35:59;;;;;;;;;;;;;;;17.73;52.76;101962.44;5043082;28;920;-75
2023/06/10 07:38:25;;;;;;;;;;;;;;;17.77;52.55;101960.91;5031236;28;1161;-75
2023/06/10 07:40:52;;;;;;;;;;;;;;;17.82;52.37;101964.59;5043187;28;1922;-75
2023/06/10 07:43:18;;;;;;;;;;;;;;;17.84;52.37;101957.03;5043189;28;1027;-75
2023/06/10 07:45:45;;;;;;;;;;;;;;;17.83;52.28;101960.84;5043141;28;1781;-74
2023/06/10 07:48:11;;;;;;;;;;;;;;;17.70;52.59;101958.28;5042528;28;1054;-75
2023/06/10 07:50:38;;;;;;;;;;;;;;;17.65;52.74;101966.34;5042592;28;1023;-74
2023/06/10 07:53:05;;;;;;;;;;;;;;;17.74;52.59;101959.47;5048919;28;1463;-74
2023/06/10 07:55:31;;;;;;;;;;;;;;;17.70;52.61;101958.28;5042882;28;1582;-74
2023/06/10 07:57:58;;;;;;;;;;;;;;;17.59;52.87;101959.06;5042481;28;1531;-75
2023/06/10 08:00:24;;;;;;;;;;;;;;;17.64;52.81;101956.47;5047482;28;1975;-74
2023/06/10 08:02:51;;;;;;;;;;;;;;;17.83;52.25;101960.00;5042863;28;1558;-75
2023/06/10 08:05:18;;;;;;;;;;;;;;;17.76;52.46;101961.97;5031786;28;1214;-74
2023/06/10 08:07:44;;;;;;;;;;;;;;;17.72;52.33;101956.16;5030607;28;1528;-74
2023/06/10 08:10:11;;;;;;;;;;;;;;;17.96;51.92;101956.22;5042920;28;1101;-73
2023/06/10 08:12:37;;;;;;;;;;;;;;;17.82;52.14;101958.34;5042673;28;1595;-74
2023/06/10 08:15:04;;;;;;;;;;;;;;;17.91;52.07;101959.66;5031321;28;1077;-74
2023/06/10 08:17:31;;;;;;;;;;;;;;;17.67;52.60;101958.75;5041894;28;1070;-74
2023/06/10 08:19:57;;;;;;;;;;;;;;;17.83;52.21;101957.28;5041829;28;1953;-74
2023/06/10 08:22:28;;;;;;;;;;;;;;;17.89;52.03;101957.16;5043416;28;1512;-74
2023/06/10 08:24:55;;;;;;;;;;;;;;;17.88;52.05;101954.66;5031348;28;1687;-73
2023/06/10 08:27:22;;;;;;;;;;;;;;;17.80;52.10;101955.03;5031374;28;1058;-73
2023/06/10 08:29:49;;;;;;;;;;;;;;;17.92;52.12;101951.25;5042405;28;1018;-74
2023/06/10 08:32:15;;;;;;;;;;;;;;;18.10;51.19;101957.66;5045500;28;1578;-76
2023/06/10 08:34:42;;;;;;;;;;;;;;;18.01;51.44;101954.47;5049365;28;1038;-74
2023/06/10 08:37:08;;;;;;;;;;;;;;;17.93;51.57;101947.44;5032870;28;1353;-73
2023/06/10 08:39:35;;;;;;;;;;;;;;;18.36;50.39;101929.09;5051680;28;1030;-74
2023/06/10 08:42:01;;;;;;;;;;;;;;;18.17;50.92;101951.03;5052464;28;1914;-74
2023/06/10 08:44:28;;;;;;;;;;;;;;;17.89;51.89;101951.72;5053825;28;1050;-74
2023/06/10 08:46:54;;;;;;;;;;;;;;;18.15;51.12;101946.91;5036779;28;1406;-73
2023/06/10 08:49:21;;;;;;;;;;;;;;;18.17;51.36;101944.75;5053380;28;1022;-74
2023/06/10 08:51:47;;;;;;;;;;;;;;;18.06;51.59;101954.59;5051526;28;1590;-74
2023/06/10 08:54:14;;;;;;;;;;;;;;;18.28;50.73;101951.28;5052393;28;1062;-74
2023/06/10 08:56:41;;;;;;;;;;;;;;;17.86;52.14;101957.63;5052683;28;1377;-74
2023/06/10 08:59:07;;;;;;;;;;;;;;;17.99;51.52;101951.13;5052499;28;1010;-74
2023/06/10 09:01:34;;;;;;;;;;;;;;;17.90;52.18;101952.53;5051514;28;1963;-74
2023/06/10 09:04:00;;;;;;;;;;;;;;;17.95;51.83;101943.69;5052114;28;1558;-75
2023/06/10 09:06:27;;;;;;;;;;;;;;;17.65;52.57;101942.66;5052703;28;1010;-74
2023/06/10 09:08:53;;;;;;;;;;;;;;;17.55;52.80;101949.72;5053100;28;1106;-74
2023/06/10 09:11:20;;;;;;;;;;;;;;;17.53;53.12;101949.09;5052765;28;1444;-74
2023/06/10 09:13:46;;;;;;;;;;;;;;;17.51;53.24;101940.34;5055673;28;1047;-74
2023/06/10 09:16:13;;;;;;;;;;;;;;;17.50;53.23;101942.25;5051685;28;1097;-75
2023/06/10 09:18:40;;;;;;;;;;;;;;;17.55;53.15;101947.81;5052937;28;1078;-74
2023/06/10 09:21:06;;;;;;;;;;;;;;;17.52;53.28;101948.28;5050644;28;1971;-74
2023/06/10 09:23:33;;;;;;;;;;;;;;;17.52;53.21;101936.56;5035415;28;1306;-74
2023/06/10 09:25:59;;;;;;;;;;;;;;;17.51;53.31;101933.00;5033449;28;1276;-74
2023/06/10 09:28:26;;;;;;;;;;;;;;;17.51;53.31;101943.06;5052879;28;1030;-74
2023/06/10 09:30:53;;;;;;;;;;;;;;;17.50;53.24;101936.81;5034924;28;1660;-75
2023/06/10 09:33:21;;;;;;;;;;;;;;;17.52;53.19;101942.00;5053212;28;1177;-75
2023/06/10 09:35:47;;;;;;;;;;;;;;;17.51;53.33;101935.72;5052817;28;1046;-74
2023/06/10 09:38:15;;;;;;;;;;;;;;;17.52;53.34;101931.09;5051925;28;974;-75
2023/06/10 09:40:41;;;;;;;;;;;;;;;17.54;53.39;101923.53;5051812;28;1976;-75
2023/06/10 09:43:11;;;;;;;;;;;;;;;17.53;53.45;101933.63;5052141;28;1011;-73
2023/06/10 09:45:38;;;;;;;;;;;;;;;17.54;53.47;101929.00;5051580;28;1077;-76
2023/06/10 09:48:04;;;;;;;;;;;;;;;17.55;53.28;101930.66;5050643;28;1090;-74
2023/06/10 09:50:31;;;;;;;;;;;;;;;17.55;53.31;101931.47;5050052;28;1411;-73
2023/06/10 09:52:57;;;;;;;;;;;;;;;17.55;53.42;101926.03;5052839;28;1003;-73
2023/06/10 09:55:24;;;;;;;;;;;;;;;17.55;53.26;101920.56;5036042;28;1103;-75
2023/06/10 09:57:50;;;;;;;;;;;;;;;17.58;53.52;101924.72;5034491;28;1448;-73
2023/06/10 10:00:17;;;;;;;;;;;;;;;17.58;53.42;101919.28;5051420;28;1058;-74
2023/06/10 10:02:43;;;;;;;;;;;;;;;17.57;53.24;101918.47;5051090;28;1910;-74
2023/06/10 10:05:10;;;;;;;;;;;;;;;17.58;53.26;101917.38;5052071;28;1302;-75
2023/06/10 10:07:36;;;;;;;;;;;;;;;17.59;53.40;101907.31;5051559;28;1313;-75
2023/06/10 10:10:03;;;;;;;;;;;;;;;17.59;53.33;101912.75;5049267;28;1546;-75
2023/06/10 10:12:29;;;;;;;;;;;;;;;17.59;53.38;101916.34;5029878;28;1202;-74
2023/06/10 10:14:56;;;;;;;;;;;;;;;17.60;53.43;101907.09;5050395;28;1031;-74
2023/06/10 10:17:23;;;;;;;;;;;;;;;17.60;53.33;101898.91;5034427;28;1177;-73
2023/06/10 10:19:50;;;;;;;;;;;;;;;17.61;53.43;101908.75;5050220;28;1538;-74
2023/06/10 10:22:16;;;;;;;;;;;;;;;17.62;53.35;101906.88;5051600;28;1981;-74
2023/06/10 10:24:43;;;;;;;;;;;;;;;17.61;53.59;101903.28;5054136;28;1746;-74
2023/06/10 10:27:10;;;;;;;;;;;;;;;17.62;53.50;101901.41;5050345;28;1452;-74
2023/06/10 10:29:37;;;;;;;;;;;;;;;17.63;53.32;101906.63;5050927;28;1010;-74
2023/06/10 10:32:03;;;;;;;;;;;;;;;17.63;53.53;101903.06;5050578;28;1613;-74
2023/06/10 10:34:30;;;;;;;;;;;;;;;17.64;53.66;101891.94;5050464;28;1047;-74
2023/06/10 10:36:56;;;;;;;;;;;;;;;17.65;53.44;101892.78;5050321;28;1524;-74
2023/06/10 10:39:23;;;;;;;;;;;;;;;17.65;53.43;101893.59;5028028;28;1174;-74
2023/06/10 10:41:49;;;;;;;;;;;;;;;17.66;53.62;101886.25;5050869;28;1918;-74
2023/06/10 10:44:16;;;;;;;;;;;;;;;17.66;53.59;101888.97;5050524;28;1055;-74
2023/06/10 10:46:43;;;;;;;;;;;;;;;17.66;53.57;101892.53;5050467;28;1444;-73
2023/06/10 10:49:09;;;;;;;;;;;;;;;17.67;53.60;101890.63;5050379;28;1234;-73
2023/06/10 10:51:36;;;;;;;;;;;;;;;17.67;53.68;101890.63;5051572;28;1205;-74
2023/06/10 10:54:03;;;;;;;;;;;;;;;17.68;53.59;101898.59;5050098;28;1058;-73
2023/06/10 10:56:30;;;;;;;;;;;;;;;17.70;53.69;101890.97;5050243;28;1623;-74
2023/06/10 10:58:57;;;;;;;;;;;;;;;17.70;53.64;101898.34;5052042;28;1055;-73
2023/06/10 11:01:23;;;;;;;;;;;;;;;17.70;53.52;101890.97;5032620;28;1980;-73
2023/06/10 11:03:50;;;;;;;;;;;;;;;17.71;53.76;101875.50;5049652;28;1122;-74
2023/06/10 11:06:17;;;;;;;;;;;;;;;17.73;53.80;101891.59;5050345;28;1595;-74
2023/06/10 11:08:43;;;;;;;;;;;;;;;17.72;53.73;101877.16;5050300;28;983;-74
2023/06/10 11:11:10;;;;;;;;;;;;;;;17.73;53.60;101875.25;5049976;28;1093;-74
2023/06/10 11:13:38;;;;;;;;;;;;;;;17.74;53.77;101880.47;5050751;28;1093;-74
2023/06/10 11:16:05;;;;;;;;;;;;;;;17.75;53.77;101875.84;5050530;28;1085;-74
2023/06/10 11:18:33;;;;;;;;;;;;;;;17.76;53.67;101880.22;5049587;28;1477;-75
2023/06/10 11:21:00;;;;;;;;;;;;;;;17.77;53.62;101880.00;5049370;28;1910;-74
2023/06/10 11:23:26;;;;;;;;;;;;;;;17.77;53.75;101874.56;5049091;28;1106;-73
2023/06/10 11:25:53;;;;;;;;;;;;;;;17.79;53.94;101874.34;5033180;28;1161;-76
2023/06/10 11:28:19;;;;;;;;;;;;;;;17.78;53.73;101868.06;5049758;28;1491;-73
2023/06/10 11:30:46;;;;;;;;;;;;;;;17.80;53.92;101863.22;5049254;28;1133;-75
2023/06/10 11:33:13;;;;;;;;;;;;;;;17.80;53.69;101870.56;5049471;28;1055;-74
2023/06/10 11:35:39;;;;;;;;;;;;;;;17.81;53.98;101866.75;5033088;28;1601;-75
2023/06/10 11:38:06;;;;;;;;;;;;;;;17.81;53.81;101867.59;5049880;28;1027;-75
2023/06/10 11:40:33;;;;;;;;;;;;;;;17.82;53.91;101863.78;5050150;28;1074;-75
2023/06/10 11:43:00;;;;;;;;;;;;;;;17.83;53.97;101865.47;5049818;28;1972;-75
2023/06/10 11:45:26;;;;;;;;;;;;;;;17.84;54.07;101867.09;5049257;28;1484;-76
2023/06/10 11:47:53;;;;;;;;;;;;;;;17.39;54.00;101783.19;5050169;28;1062;-74
2023/06/10 11:50:19;;;;;;;;;;;;;;;17.86;54.05;101859.53;5051625;28;1113;-76
2023/06/10 11:52:46;;;;;;;;;;;;;;;17.87;54.25;101863.09;5049513;28;1121;-76
2023/06/10 11:55:12;;;;;;;;;;;;;;;17.88;54.22;101853.84;5033572;28;1362;-75
2023/06/10 11:57:39;;;;;;;;;;;;;;;17.89;53.98;101850.88;5050014;28;1235;-75
2023/06/10 12:00:05;;;;;;;;;;;;;;;17.90;54.03;101849.81;5033041;28;1079;-74
2023/06/10 12:02:32;;;;;;;;;;;;;;;17.90;54.02;101840.81;5051437;28;1909;-73
2023/06/10 12:04:59;;;;;;;;;;;;;;;17.92;54.27;101852.31;5050379;28;1459;-76
2023/06/10 12:07:25;;;;;;;;;;;;;;;17.94;54.13;101847.44;5050695;28;1139;-75
2023/06/10 12:09:52;;;;;;;;;;;;;;;17.94;54.02;101844.72;5051412;28;1011;-75
2023/06/10 12:12:19;;;;;;;;;;;;;;;17.95;54.35;101837.38;5050861;28;1128;-75
2023/06/10 12:14:47;;;;;;;;;;;;;;;17.96;54.28;101841.75;5052893;28;1480;-75
2023/06/10 12:17:13;;;;;;;;;;;;;;;17.97;54.31;101837.94;5054608;28;1163;-75
2023/06/10 12:19:40;;;;;;;;;;;;;;;17.97;54.43;101836.09;5059354;28;1425;-75
2023/06/10 12:22:06;;;;;;;;;;;;;;;17.99;54.21;101830.38;5053771;28;1906;-75
2023/06/10 12:24:33;;;;;;;;;;;;;;;18.00;54.05;101830.16;5055334;28;1623;-76
2023/06/10 12:27:00;;;;;;;;;;;;;;;18.02;54.13;101829.91;5036759;28;1493;-74
2023/06/10 12:29:26;;;;;;;;;;;;;;;18.03;54.29;101832.41;5055023;28;1091;-74
2023/06/10 12:31:53;;;;;;;;;;;;;;;18.04;54.42;101828.59;5053557;28;1318;-75
2023/06/10 12:34:19;;;;;;;;;;;;;;;18.04;54.31;101828.59;5053954;28;1528;-75
2023/06/10 12:36:46;;;;;;;;;;;;;;;18.05;54.31;101827.53;5037482;28;1486;-75
2023/06/10 12:39:12;;;;;;;;;;;;;;;18.06;54.30;101821.03;5053882;28;1030;-73
2023/06/10 12:41:39;;;;;;;;;;;;;;;18.08;54.38;101829.75;5054789;28;1961;-74
2023/06/10 12:44:06;;;;;;;;;;;;;;;18.09;54.38;101827.91;5053759;28;1563;-73
2023/06/10 12:46:32;;;;;;;;;;;;;;;18.09;54.54;101826.00;5063373;28;1003;-76